Terminal Aerodrome Forecast
Issued by NWS

Home | Current Version | Previous Version | Graphics & Text | Print | Product List | Glossary On
Versions: 1 2 3 4 5 6 7 8 9 10 11 12 13 14
415
FTUS43 KLSX 030520
TAFSUS
TAF
KSUS 030520Z 0306/0406 24012KT P6SM SKC
     FM030900 23014G22KT P6SM SKC
     FM031100 27016G26KT P6SM OVC020
     FM031900 28015G25KT P6SM BKN035
     FM040100 30012KT P6SM SCT030=

USA.gov is the U.S. government's official web portal to all federal, state and local government web resources and services.